sensor_id;sensor_type;location;lat;lon;timestamp;pressure;altitude;pressure_sealevel;temperature;humidity
38038;BME280;23843;51.320;12.340;2023-04-08T00:01:07;100788.91;;;7.18;100.00
38038;BME280;23843;51.320;12.340;2023-04-08T00:03:33;100788.19;;;7.13;100.00
38038;BME280;23843;51.320;12.340;2023-04-08T00:05:58;100786.50;;;7.12;100.00
38038;BME280;23843;51.320;12.340;2023-04-08T00:08:24;100791.53;;;7.18;100.00
38038;BME280;23843;51.320;12.340;2023-04-08T00:10:49;100784.44;;;7.20;100.00
38038;BME280;23843;51.320;12.340;2023-04-08T00:13:16;100788.88;;;7.20;100.00
38038;BME280;23843;51.320;12.340;2023-04-08T00:15:41;100784.63;;;7.14;100.00
38038;BME280;23843;51.320;12.340;2023-04-08T00:18:07;100788.88;;;7.20;100.00
38038;BME280;23843;51.320;12.340;2023-04-08T00:20:33;100786.13;;;7.23;100.00
38038;BME280;23843;51.320;12.340;2023-04-08T00:23:01;100788.59;;;7.27;100.00
38038;BME280;23843;51.320;12.340;2023-04-08T00:25:26;100785.97;;;7.27;100.00
38038;BME280;23843;51.320;12.340;2023-04-08T00:27:52;100785.16;;;7.25;100.00
38038;BME280;23843;51.320;12.340;2023-04-08T00:30:19;100781.00;;;7.18;100.00
38038;BME280;23843;51.320;12.340;2023-04-08T00:35:10;100794.19;;;7.18;100.00
38038;BME280;23843;51.320;12.340;2023-04-08T00:37:35;100785.19;;;7.24;100.00
38038;BME280;23843;51.320;12.340;2023-04-08T00:40:01;100788.72;;;7.24;100.00
38038;BME280;23843;51.320;12.340;2023-04-08T00:42:26;100784.50;;;7.19;100.00
38038;BME280;23843;51.320;12.340;2023-04-08T00:44:52;100786.38;;;7.15;100.00
38038;BME280;23843;51.320;12.340;2023-04-08T00:47:19;100787.97;;;7.19;100.00
38038;BME280;23843;51.320;12.340;2023-04-08T00:49:44;100790.47;;;7.24;100.00
38038;BME280;23843;51.320;12.340;2023-04-08T00:52:10;100789.63;;;7.23;100.00
38038;BME280;23843;51.320;12.340;2023-04-08T00:54:35;100780.81;;;7.24;100.00
38038;BME280;23843;51.320;12.340;2023-04-08T00:57:01;100783.34;;;7.27;100.00
38038;BME280;23843;51.320;12.340;2023-04-08T00:59:28;100785.31;;;7.21;100.00
38038;BME280;23843;51.320;12.340;2023-04-08T01:01:58;100790.44;;;7.25;100.00
38038;BME280;23843;51.320;12.340;2023-04-08T01:04:34;100793.88;;;7.27;100.00
38038;BME280;23843;51.320;12.340;2023-04-08T01:07:16;100789.72;;;7.20;100.00
38038;BME280;23843;51.320;12.340;2023-04-08T01:09:44;100787.09;;;7.20;100.00
38038;BME280;23843;51.320;12.340;2023-04-08T01:12:11;100783.47;;;7.23;100.00
38038;BME280;23843;51.320;12.340;2023-04-08T01:14:42;100785.16;;;7.25;100.00
38038;BME280;23843;51.320;12.340;2023-04-08T01:17:09;100791.28;;;7.26;100.00
38038;BME280;23843;51.320;12.340;2023-04-08T01:19:38;100786.88;;;7.26;100.00
38038;BME280;23843;51.320;12.340;2023-04-08T01:22:11;100791.25;;;7.27;100.00
38038;BME280;23843;51.320;12.340;2023-04-08T01:24:42;100791.50;;;7.20;100.00
38038;BME280;23843;51.320;12.340;2023-04-08T01:27:10;100790.69;;;7.18;100.00
38038;BME280;23843;51.320;12.340;2023-04-08T01:29:36;100794.94;;;7.22;100.00
38038;BME280;23843;51.320;12.340;2023-04-08T01:32:03;100789.63;;;7.23;100.00
38038;BME280;23843;51.320;12.340;2023-04-08T01:34:31;100794.78;;;7.26;100.00
38038;BME280;23843;51.320;12.340;2023-04-08T01:36:59;100797.31;;;7.29;100.00
38038;BME280;23843;51.320;12.340;2023-04-08T01:39:26;100793.88;;;7.27;100.00
38038;BME280;23843;51.320;12.340;2023-04-08T01:41:53;100793.06;;;7.25;100.00
38038;BME280;23843;51.320;12.340;2023-04-08T01:44:22;100797.59;;;7.22;100.00
38038;BME280;23843;51.320;12.340;2023-04-08T01:46:48;100794.47;;;7.09;100.00
38038;BME280;23843;51.320;12.340;2023-04-08T01:49:15;100793.56;;;7.10;100.00
38038;BME280;23843;51.320;12.340;2023-04-08T01:51:42;100800.56;;;7.11;100.00
38038;BME280;23843;51.320;12.340;2023-04-08T01:54:09;100791.69;;;7.14;100.00
38038;BME280;23843;51.320;12.340;2023-04-08T01:56:37;100790.13;;;7.08;100.00
38038;BME280;23843;51.320;12.340;2023-04-08T01:59:06;100800.63;;;7.10;100.00
38038;BME280;23843;51.320;12.340;2023-04-08T02:01:35;100798.75;;;7.13;100.00
38038;BME280;23843;51.320;12.340;2023-04-08T02:04:02;100797.03;;;7.12;100.00
38038;BME280;23843;51.320;12.340;2023-04-08T02:06:29;100792.63;;;7.13;100.00
38038;BME280;23843;51.320;12.340;2023-04-08T02:08:54;100786.50;;;7.12;100.00
38038;BME280;23843;51.320;12.340;2023-04-08T02:11:20;100786.72;;;7.04;100.00
38038;BME280;23843;51.320;12.340;2023-04-08T02:13:45;100779.06;;;6.97;100.00
38038;BME280;23843;51.320;12.340;2023-04-08T02:16:17;100781.63;;;7.00;100.00
38038;BME280;23843;51.320;12.340;2023-04-08T02:18:54;100779.03;;;6.98;100.00
38038;BME280;23843;51.320;12.340;2023-04-08T02:21:21;100778.09;;;6.99;100.00
38038;BME280;23843;51.320;12.340;2023-04-08T02:23:51;100783.34;;;7.01;100.00
38038;BME280;23843;51.320;12.340;2023-04-08T02:26:19;100783.22;;;7.04;100.00
38038;BME280;23843;51.320;12.340;2023-04-08T02:28:47;100788.50;;;7.04;100.00
38038;BME280;23843;51.320;12.340;2023-04-08T02:31:16;100789.31;;;7.06;100.00
38038;BME280;23843;51.320;12.340;2023-04-08T02:33:43;100788.38;;;7.07;100.00
38038;BME280;23843;51.320;12.340;2023-04-08T02:36:12;100790.00;;;7.11;100.00
38038;BME280;23843;51.320;12.340;2023-04-08T02:38:38;100793.56;;;7.10;100.00
38038;BME280;23843;51.320;12.340;2023-04-08T02:41:04;100787.38;;;7.11;100.00
38038;BME280;23843;51.320;12.340;2023-04-08T02:43:29;100788.31;;;7.10;100.00
38038;BME280;23843;51.320;12.340;2023-04-08T02:45:55;100793.66;;;7.07;100.00
38038;BME280;23843;51.320;12.340;2023-04-08T02:48:20;100789.16;;;7.11;100.00
38038;BME280;23843;51.320;12.340;2023-04-08T02:50:46;100796.09;;;7.13;100.00
38038;BME280;23843;51.320;12.340;2023-04-08T02:53:12;100790.84;;;7.13;100.00
38038;BME280;23843;51.320;12.340;2023-04-08T02:55:38;100798.75;;;7.13;100.00
38038;BME280;23843;51.320;12.340;2023-04-08T02:58:03;100804.88;;;7.14;100.00
38038;BME280;23843;51.320;12.340;2023-04-08T03:00:29;100803.16;;;7.13;100.00
38038;BME280;23843;51.320;12.340;2023-04-08T03:02:54;100792.75;;;7.08;100.00
38038;BME280;23843;51.320;12.340;2023-04-08T03:05:20;100796.28;;;7.07;100.00
38038;BME280;23843;51.320;12.340;2023-04-08T03:07:46;100793.56;;;7.10;100.00
38038;BME280;23843;51.320;12.340;2023-04-08T03:10:12;100798.03;;;7.08;100.00
38038;BME280;23843;51.320;12.340;2023-04-08T03:12:38;100804.13;;;7.10;100.00
38038;BME280;23843;51.320;12.340;2023-04-08T03:15:04;100803.31;;;7.08;100.00
38038;BME280;23843;51.320;12.340;2023-04-08T03:17:30;100803.25;;;7.10;100.00
38038;BME280;23843;51.320;12.340;2023-04-08T03:19:55;100802.47;;;7.06;100.00
38038;BME280;23843;51.320;12.340;2023-04-08T03:22:21;100803.56;;;7.00;100.00
38038;BME280;23843;51.320;12.340;2023-04-08T03:24:46;100805.34;;;7.00;100.00
38038;BME280;23843;51.320;12.340;2023-04-08T03:27:13;100807.84;;;7.03;100.00
38038;BME280;23843;51.320;12.340;2023-04-08T03:29:39;100805.16;;;7.04;100.00
38038;BME280;23843;51.320;12.340;2023-04-08T03:32:04;100807.75;;;7.06;100.00
38038;BME280;23843;51.320;12.340;2023-04-08T03:34:30;100807.72;;;7.07;100.00
38038;BME280;23843;51.320;12.340;2023-04-08T03:36:55;100809.38;;;7.10;100.00
38038;BME280;23843;51.320;12.340;2023-04-08T03:39:20;100812.09;;;7.07;100.00
38038;BME280;23843;51.320;12.340;2023-04-08T03:41:46;100810.41;;;7.04;100.00
38038;BME280;23843;51.320;12.340;2023-04-08T03:44:13;100818.41;;;7.03;100.00
38038;BME280;23843;51.320;12.340;2023-04-08T03:46:38;100816.66;;;7.02;100.00
38038;BME280;23843;51.320;12.340;2023-04-08T03:49:04;100824.56;;;7.02;100.00
38038;BME280;23843;51.320;12.340;2023-04-08T03:51:29;100829.06;;;6.98;100.00
38038;BME280;23843;51.320;12.340;2023-04-08T03:53:55;100829.94;;;6.99;100.00
38038;BME280;23843;51.320;12.340;2023-04-08T03:56:20;100825.59;;;6.98;100.00
38038;BME280;23843;51.320;12.340;2023-04-08T03:58:46;100834.97;;;6.78;100.00
38038;BME280;23843;51.320;12.340;2023-04-08T04:01:12;100837.75;;;6.74;100.00
38038;BME280;23843;51.320;12.340;2023-04-08T04:03:38;100836.78;;;6.76;100.00
38038;BME280;23843;51.320;12.340;2023-04-08T04:06:03;100830.59;;;6.77;100.00
38038;BME280;23843;51.320;12.340;2023-04-08T04:08:29;100826.97;;;6.81;100.00
38038;BME280;23843;51.320;12.340;2023-04-08T04:10:54;100825.97;;;6.85;100.00
38038;BME280;23843;51.320;12.340;2023-04-08T04:13:20;100832.09;;;6.86;100.00
38038;BME280;23843;51.320;12.340;2023-04-08T04:15:46;100835.63;;;6.85;100.00
38038;BME280;23843;51.320;12.340;2023-04-08T04:18:13;100836.50;;;6.85;100.00
38038;BME280;23843;51.320;12.340;2023-04-08T04:20:38;100832.28;;;6.80;100.00
38038;BME280;23843;51.320;12.340;2023-04-08T04:23:04;100830.59;;;6.77;100.00
38038;BME280;23843;51.320;12.340;2023-04-08T04:25:29;100840.25;;;6.78;100.00
38038;BME280;23843;51.320;12.340;2023-04-08T04:27:55;100844.47;;;6.82;100.00
38038;BME280;23843;51.320;12.340;2023-04-08T04:30:20;100847.91;;;6.86;100.00
38038;BME280;23843;51.320;12.340;2023-04-08T04:32:46;100846.13;;;6.86;100.00
38038;BME280;23843;51.320;12.340;2023-04-08T04:35:13;100855.84;;;6.84;100.00
38038;BME280;23843;51.320;12.340;2023-04-08T04:37:38;100854.13;;;6.83;100.00
38038;BME280;23843;51.320;12.340;2023-04-08T04:40:05;100859.28;;;6.86;100.00
38038;BME280;23843;51.320;12.340;2023-04-08T04:42:31;100860.13;;;6.87;100.00
38038;BME280;23843;51.320;12.340;2023-04-08T04:44:56;100854.03;;;6.86;100.00
38038;BME280;23843;51.320;12.340;2023-04-08T04:47:22;100857.44;;;6.90;100.00
38038;BME280;23843;51.320;12.340;2023-04-08T04:49:47;100864.41;;;6.91;100.00
38038;BME280;23843;51.320;12.340;2023-04-08T04:52:14;100859.97;;;6.93;100.00
38038;BME280;23843;51.320;12.340;2023-04-08T04:54:40;100867.81;;;6.95;100.00
38038;BME280;23843;51.320;12.340;2023-04-08T04:57:05;100873.03;;;6.96;100.00
38038;BME280;23843;51.320;12.340;2023-04-08T04:59:31;100873.00;;;6.98;100.00
38038;BME280;23843;51.320;12.340;2023-04-08T05:01:56;100877.34;;;6.99;100.00
38038;BME280;23843;51.320;12.340;2023-04-08T05:04:22;100874.97;;;6.90;100.00
38038;BME280;23843;51.320;12.340;2023-04-08T05:06:47;100872.41;;;6.88;100.00
38038;BME280;23843;51.320;12.340;2023-04-08T05:09:14;100874.13;;;6.89;100.00
38038;BME280;23843;51.320;12.340;2023-04-08T05:11:39;100867.09;;;6.90;100.00
38038;BME280;23843;51.320;12.340;2023-04-08T05:14:05;100873.28;;;6.89;100.00
38038;BME280;23843;51.320;12.340;2023-04-08T05:16:30;100873.28;;;6.89;100.00
38038;BME280;23843;51.320;12.340;2023-04-08T05:18:56;100882.16;;;6.84;100.00
38038;BME280;23843;51.320;12.340;2023-04-08T05:21:21;100890.78;;;6.90;100.00
38038;BME280;23843;51.320;12.340;2023-04-08T05:23:47;100890.63;;;6.96;100.00
38038;BME280;23843;51.320;12.340;2023-04-08T05:26:14;100891.44;;;6.98;100.00
38038;BME280;23843;51.320;12.340;2023-04-08T05:28:39;100892.25;;;7.00;100.00
38038;BME280;23843;51.320;12.340;2023-04-08T05:31:05;100892.25;;;7.00;100.00
38038;BME280;23843;51.320;12.340;2023-04-08T05:33:30;100896.50;;;7.04;100.00
38038;BME280;23843;51.320;12.340;2023-04-08T05:35:56;100900.00;;;7.04;100.00
38038;BME280;23843;51.320;12.340;2023-04-08T05:38:21;100901.84;;;7.02;100.00
38038;BME280;23843;51.320;12.340;2023-04-08T05:40:46;100899.50;;;6.92;100.00
38038;BME280;23843;51.320;12.340;2023-04-08T05:43:14;100902.16;;;6.92;100.00
38038;BME280;23843;51.320;12.340;2023-04-08T05:45:39;100894.13;;;6.95;100.00
38038;BME280;23843;51.320;12.340;2023-04-08T05:48:05;100896.00;;;6.93;100.00
38038;BME280;23843;51.320;12.340;2023-04-08T05:50:30;100897.69;;;6.94;100.00
38038;BME280;23843;51.320;12.340;2023-04-08T05:52:56;100904.69;;;6.95;100.00
38038;BME280;23843;51.320;12.340;2023-04-08T05:55:23;100901.91;;;6.99;100.00
38038;BME280;23843;51.320;12.340;2023-04-08T05:57:51;100900.00;;;7.04;100.00
38038;BME280;23843;51.320;12.340;2023-04-08T06:00:18;100904.41;;;7.04;100.00
38038;BME280;23843;51.320;12.340;2023-04-08T06:02:43;100907.38;;;6.93;100.00
38038;BME280;23843;51.320;12.340;2023-04-08T06:05:09;100900.44;;;6.91;100.00
38038;BME280;23843;51.320;12.340;2023-04-08T06:07:34;100906.53;;;6.93;100.00
38038;BME280;23843;51.320;12.340;2023-04-08T06:10:00;100909.06;;;6.96;100.00
38038;BME280;23843;51.320;12.340;2023-04-08T06:12:26;100910.59;;;7.03;100.00
38038;BME280;23843;51.320;12.340;2023-04-08T06:14:53;100920.09;;;7.07;100.00
38038;BME280;23843;51.320;12.340;2023-04-08T06:17:19;100925.38;;;7.07;100.00
38038;BME280;23843;51.320;12.340;2023-04-08T06:19:45;100930.81;;;7.02;100.00
38038;BME280;23843;51.320;12.340;2023-04-08T06:22:10;100930.94;;;6.98;100.00
38038;BME280;23843;51.320;12.340;2023-04-08T06:25:10;100929.16;;;6.98;100.00
38038;BME280;23843;51.320;12.340;2023-04-08T06:27:37;100922.97;;;6.99;100.00
38038;BME280;23843;51.320;12.340;2023-04-08T06:30:04;100926.41;;;7.03;100.00
38038;BME280;23843;51.320;12.340;2023-04-08T06:32:31;100925.47;;;7.04;100.00
38038;BME280;23843;51.320;12.340;2023-04-08T06:34:56;100928.84;;;7.09;100.00
38038;BME280;23843;51.320;12.340;2023-04-08T06:37:22;100937.47;;;7.14;100.00
38038;BME280;23843;51.320;12.340;2023-04-08T06:39:47;100938.19;;;7.19;100.00
38038;BME280;23843;51.320;12.340;2023-04-08T06:42:13;100941.72;;;7.18;100.00
38038;BME280;23843;51.320;12.340;2023-04-08T06:44:38;100941.63;;;7.21;100.00
38038;BME280;23843;51.320;12.340;2023-04-08T06:47:10;100950.19;;;7.29;100.00
38038;BME280;23843;51.320;12.340;2023-04-08T06:49:37;100957.13;;;7.32;100.00
38038;BME280;23843;51.320;12.340;2023-04-08T06:52:02;100950.50;;;7.19;100.00
38038;BME280;23843;51.320;12.340;2023-04-08T06:54:28;100961.09;;;7.17;100.00
38038;BME280;23843;51.320;12.340;2023-04-08T06:56:53;100968.94;;;7.19;100.00
38038;BME280;23843;51.320;12.340;2023-04-08T06:59:19;100965.56;;;7.15;100.00
38038;BME280;23843;51.320;12.340;2023-04-08T07:01:44;100977.81;;;7.16;100.00
38038;BME280;23843;51.320;12.340;2023-04-08T07:04:10;100975.88;;;7.21;100.00
38038;BME280;23843;51.320;12.340;2023-04-08T07:06:37;100981.88;;;7.26;100.00
38038;BME280;23843;51.320;12.340;2023-04-08T07:09:03;100975.63;;;7.31;100.00
38038;BME280;23843;51.320;12.340;2023-04-08T07:11:28;100975.47;;;7.35;100.00
38038;BME280;23843;51.320;12.340;2023-04-08T07:13:54;100981.44;;;7.42;100.00
38038;BME280;23843;51.320;12.340;2023-04-08T07:16:19;100982.97;;;7.49;100.00
38038;BME280;23843;51.320;12.340;2023-04-08T07:18:45;100980.91;;;7.59;100.00
38038;BME280;23843;51.320;12.340;2023-04-08T07:21:10;100982.63;;;7.60;100.00
38038;BME280;23843;51.320;12.340;2023-04-08T07:23:37;100979.13;;;7.59;100.00
38038;BME280;23843;51.320;12.340;2023-04-08T07:26:03;100983.44;;;7.62;100.00
38038;BME280;23843;51.320;12.340;2023-04-08T07:28:28;100987.75;;;7.64;100.00
38038;BME280;23843;51.320;12.340;2023-04-08T07:30:54;100991.91;;;7.71;100.00
38038;BME280;23843;51.320;12.340;2023-04-08T07:33:19;100990.91;;;7.76;100.00
38038;BME280;23843;51.320;12.340;2023-04-08T07:35:45;100990.84;;;7.77;100.00
38038;BME280;23843;51.320;12.340;2023-04-08T07:38:10;100988.47;;;7.69;100.00
38038;BME280;23843;51.320;12.340;2023-04-08T07:40:37;100998.03;;;7.72;100.00
38038;BME280;23843;51.320;12.340;2023-04-08T07:43:03;100989.47;;;7.65;100.00
38038;BME280;23843;51.320;12.340;2023-04-08T07:45:29;101002.25;;;7.51;100.00
38038;BME280;23843;51.320;12.340;2023-04-08T07:47:54;101003.03;;;7.53;100.00
38038;BME280;23843;51.320;12.340;2023-04-08T07:50:20;100997.69;;;7.56;100.00
38038;BME280;23843;51.320;12.340;2023-04-08T07:52:45;101000.13;;;7.62;100.00
38038;BME280;23843;51.320;12.340;2023-04-08T07:55:11;100995.75;;;7.61;100.00
38038;BME280;23843;51.320;12.340;2023-04-08T07:57:37;100994.03;;;7.60;100.00
38038;BME280;23843;51.320;12.340;2023-04-08T08:00:04;101002.50;;;7.70;100.00
38038;BME280;23843;51.320;12.340;2023-04-08T08:02:32;101003.06;;;7.80;100.00
38038;BME280;23843;51.320;12.340;2023-04-08T08:04:59;101004.28;;;7.98;100.00
38038;BME280;23843;51.320;12.340;2023-04-08T08:07:25;101005.56;;;8.11;100.00
38038;BME280;23843;51.320;12.340;2023-04-08T08:09:51;101005.19;;;8.22;100.00
38038;BME280;23843;51.320;12.340;2023-04-08T08:12:16;101003.75;;;8.38;100.00
38038;BME280;23843;51.320;12.340;2023-04-08T08:14:43;101013.03;;;8.51;100.00
38038;BME280;23843;51.320;12.340;2023-04-08T08:17:08;101014.34;;;8.63;100.00
38038;BME280;23843;51.320;12.340;2023-04-08T08:19:34;101021.50;;;8.61;100.00
38038;BME280;23843;51.320;12.340;2023-04-08T08:21:59;101020.81;;;8.56;100.00
38038;BME280;23843;51.320;12.340;2023-04-08T08:24:25;101024.34;;;8.55;100.00
38038;BME280;23843;51.320;12.340;2023-04-08T08:26:50;101025.88;;;8.61;100.00
38038;BME280;23843;51.320;12.340;2023-04-08T08:29:16;101032.09;;;8.60;100.00
38038;BME280;23843;51.320;12.340;2023-04-08T08:31:43;101027.75;;;8.59;100.00
38038;BME280;23843;51.320;12.340;2023-04-08T08:34:08;101029.47;;;8.60;100.00
38038;BME280;23843;51.320;12.340;2023-04-08T08:36:33;101033.66;;;8.65;100.00
38038;BME280;23843;51.320;12.340;2023-04-08T08:38:59;101030.75;;;8.73;100.00
38038;BME280;23843;51.320;12.340;2023-04-08T08:41:25;101030.00;;;8.69;100.00
38038;BME280;23843;51.320;12.340;2023-04-08T08:43:54;101032.53;;;8.72;100.00
38038;BME280;23843;51.320;12.340;2023-04-08T08:46:21;101037.97;;;8.68;100.00
38038;BME280;23843;51.320;12.340;2023-04-08T08:48:48;101040.69;;;8.66;100.00
38038;BME280;23843;51.320;12.340;2023-04-08T08:51:14;101039.59;;;8.72;100.00
38038;BME280;23843;51.320;12.340;2023-04-08T08:53:42;101050.28;;;8.69;100.00
38038;BME280;23843;51.320;12.340;2023-04-08T08:56:08;101055.22;;;8.53;100.00
38038;BME280;23843;51.320;12.340;2023-04-08T08:58:34;101052.56;;;8.53;100.00
38038;BME280;23843;51.320;12.340;2023-04-08T09:01:00;101058.63;;;8.56;100.00
38038;BME280;23843;51.320;12.340;2023-04-08T09:03:26;101050.31;;;8.67;100.00
38038;BME280;23843;51.320;12.340;2023-04-08T09:05:55;101047.56;;;8.95;100.00
38038;BME280;23843;51.320;12.340;2023-04-08T09:08:27;101048.31;;;9.23;100.00
38038;BME280;23843;51.320;12.340;2023-04-08T09:10:53;101048.50;;;9.41;100.00
38038;BME280;23843;51.320;12.340;2023-04-08T09:13:18;101050.41;;;9.60;100.00
38038;BME280;23843;51.320;12.340;2023-04-08T09:16:00;101060.03;;;9.84;100.00
38038;BME280;23843;51.320;12.340;2023-04-08T09:18:26;101064.59;;;10.03;100.00
38038;BME280;23843;51.320;12.340;2023-04-08T09:20:52;101057.97;;;10.15;100.00
38038;BME280;23843;51.320;12.340;2023-04-08T09:23:18;101065.63;;;10.21;100.00
38038;BME280;23843;51.320;12.340;2023-04-08T09:25:44;101062.75;;;10.05;100.00
38038;BME280;23843;51.320;12.340;2023-04-08T09:28:18;101065.81;;;9.94;100.00
38038;BME280;23843;51.320;12.340;2023-04-08T09:30:43;101067.75;;;9.91;100.00
38038;BME280;23843;51.320;12.340;2023-04-08T09:33:09;101067.66;;;9.92;100.00
38038;BME280;23843;51.320;12.340;2023-04-08T09:35:34;101076.78;;;9.85;100.00
38038;BME280;23843;51.320;12.340;2023-04-08T09:38:00;101075.81;;;9.88;100.00
38038;BME280;23843;51.320;12.340;2023-04-08T09:40:29;101073.94;;;9.90;100.00
38038;BME280;23843;51.320;12.340;2023-04-08T09:45:45;101074.69;;;9.71;100.00
38038;BME280;23843;51.320;12.340;2023-04-08T09:48:16;101074.31;;;9.58;100.00
38038;BME280;23843;51.320;12.340;2023-04-08T09:50:44;101078.38;;;9.67;100.00
38038;BME280;23843;51.320;12.340;2023-04-08T09:53:13;101085.00;;;9.77;100.00
38038;BME280;23843;51.320;12.340;2023-04-08T09:55:49;101088.34;;;9.82;100.00
38038;BME280;23843;51.320;12.340;2023-04-08T09:58:20;101084.91;;;9.80;100.00
38038;BME280;23843;51.320;12.340;2023-04-08T10:00:48;101077.75;;;9.82;100.00
38038;BME280;23843;51.320;12.340;2023-04-08T10:03:21;101088.47;;;9.79;100.00
38038;BME280;23843;51.320;12.340;2023-04-08T10:05:51;101083.19;;;9.79;100.00
38038;BME280;23843;51.320;12.340;2023-04-08T10:08:17;101092.53;;;9.66;100.00
38038;BME280;23843;51.320;12.340;2023-04-08T10:10:45;101093.91;;;9.53;100.00
38038;BME280;23843;51.320;12.340;2023-04-08T10:13:10;101098.03;;;9.60;100.00
38038;BME280;23843;51.320;12.340;2023-04-08T10:15:37;101104.13;;;9.62;100.00
38038;BME280;23843;51.320;12.340;2023-04-08T10:18:30;101096.84;;;9.69;100.00
38038;BME280;23843;51.320;12.340;2023-04-08T10:20:58;101091.41;;;9.72;100.00
38038;BME280;23843;51.320;12.340;2023-04-08T10:23:54;101095.34;;;9.61;100.00
38038;BME280;23843;51.320;12.340;2023-04-08T10:26:31;101098.84;;;9.62;100.00
38038;BME280;23843;51.320;12.340;2023-04-08T10:32:00;101101.16;;;9.71;100.00
38038;BME280;23843;51.320;12.340;2023-04-08T10:34:26;101097.34;;;9.78;100.00
38038;BME280;23843;51.320;12.340;2023-04-08T10:36:53;101095.59;;;9.77;100.00
38038;BME280;23843;51.320;12.340;2023-04-08T10:39:19;101109.63;;;9.79;100.00
38038;BME280;23843;51.320;12.340;2023-04-08T10:41:46;101102.63;;;9.78;100.00
38038;BME280;23843;51.320;12.340;2023-04-08T10:44:15;101104.34;;;9.79;100.00
38038;BME280;23843;51.320;12.340;2023-04-08T10:46:41;101095.50;;;9.80;100.00
38038;BME280;23843;51.320;12.340;2023-04-08T10:49:06;101104.28;;;9.81;100.00
38038;BME280;23843;51.320;12.340;2023-04-08T10:51:32;101099.19;;;9.76;100.00
38038;BME280;23843;51.320;12.340;2023-04-08T10:54:04;101101.66;;;9.81;100.00
38038;BME280;23843;51.320;12.340;2023-04-08T10:56:30;101106.09;;;9.80;100.00
38038;BME280;23843;51.320;12.340;2023-04-08T10:58:56;101108.13;;;9.96;100.00
38038;BME280;23843;51.320;12.340;2023-04-08T11:01:22;101107.28;;;10.17;100.00
38038;BME280;23843;51.320;12.340;2023-04-08T11:03:48;101108.94;;;10.42;100.00
38038;BME280;23843;51.320;12.340;2023-04-08T11:06:13;101104.41;;;10.66;100.00
38038;BME280;23843;51.320;12.340;2023-04-08T11:08:39;101107.41;;;10.79;100.00
38038;BME280;23843;51.320;12.340;2023-04-08T11:11:05;101101.09;;;10.81;100.00
38038;BME280;23843;51.320;12.340;2023-04-08T11:13:32;101102.81;;;10.82;100.00
38038;BME280;23843;51.320;12.340;2023-04-08T11:15:59;101103.94;;;10.77;100.00
38038;BME280;23843;51.320;12.340;2023-04-08T11:18:25;101101.50;;;10.72;100.00
38038;BME280;23843;51.320;12.340;2023-04-08T11:20:51;101106.97;;;10.67;100.00
38038;BME280;23843;51.320;12.340;2023-04-08T11:23:17;101101.81;;;10.64;100.00
38038;BME280;23843;51.320;12.340;2023-04-08T11:25:43;101105.94;;;10.71;100.00
38038;BME280;23843;51.320;12.340;2023-04-08T11:28:10;101101.03;;;10.83;100.00
38038;BME280;23843;51.320;12.340;2023-04-08T11:30:36;101102.88;;;11.01;100.00
38038;BME280;23843;51.320;12.340;2023-04-08T11:33:03;101101.78;;;11.26;100.00
38038;BME280;23843;51.320;12.340;2023-04-08T11:35:29;101099.50;;;11.37;100.00
38038;BME280;23843;51.320;12.340;2023-04-08T11:37:56;101098.09;;;11.49;100.00
38038;BME280;23843;51.320;12.340;2023-04-08T11:40:22;101104.25;;;11.49;100.00
38038;BME280;23843;51.320;12.340;2023-04-08T11:42:48;101102.81;;;11.42;100.00
38038;BME280;23843;51.320;12.340;2023-04-08T11:45:14;101099.38;;;11.40;100.00
38038;BME280;23843;51.320;12.340;2023-04-08T11:47:40;101098.50;;;11.40;100.00
38038;BME280;23843;51.320;12.340;2023-04-08T11:50:08;101101.81;;;11.45;100.00
38038;BME280;23843;51.320;12.340;2023-04-08T11:52:44;101093.34;;;11.37;100.00
38038;BME280;23843;51.320;12.340;2023-04-08T11:55:10;101100.72;;;11.30;100.00
38038;BME280;23843;51.320;12.340;2023-04-08T11:57:35;101098.31;;;11.05;100.00
38038;BME280;23843;51.320;12.340;2023-04-08T12:00:01;101102.34;;;10.73;100.00
38038;BME280;23843;51.320;12.340;2023-04-08T12:02:27;101101.50;;;10.72;100.00
38038;BME280;23843;51.320;12.340;2023-04-08T12:04:52;101101.28;;;10.77;100.00
38038;BME280;23843;51.320;12.340;2023-04-08T12:07:19;101106.25;;;10.84;100.00
38038;BME280;23843;51.320;12.340;2023-04-08T12:09:45;101099.56;;;10.96;100.00
38038;BME280;23843;51.320;12.340;2023-04-08T12:12:10;101107.78;;;11.10;100.00
38038;BME280;23843;51.320;12.340;2023-04-08T12:14:36;101108.44;;;11.16;100.00
38038;BME280;23843;51.320;12.340;2023-04-08T12:17:01;101107.38;;;11.20;100.00
38038;BME280;23843;51.320;12.340;2023-04-08T12:19:27;101107.09;;;11.26;100.00
38038;BME280;23843;51.320;12.340;2023-04-08T12:21:58;101107.69;;;11.32;100.00
38038;BME280;23843;51.320;12.340;2023-04-08T12:24:25;101108.72;;;11.28;100.00
38038;BME280;23843;51.320;12.340;2023-04-08T12:26:51;101111.09;;;11.16;100.00
38038;BME280;23843;51.320;12.340;2023-04-08T12:29:16;101107.63;;;11.13;100.00
38038;BME280;23843;51.320;12.340;2023-04-08T12:31:42;101120.69;;;11.18;100.00
38038;BME280;23843;51.320;12.340;2023-04-08T12:34:07;101112.19;;;11.30;100.00
38038;BME280;23843;51.320;12.340;2023-04-08T12:36:33;101107.63;;;11.34;100.00
38038;BME280;23843;51.320;12.340;2023-04-08T12:39:01;101122.84;;;11.29;100.00
38038;BME280;23843;51.320;12.340;2023-04-08T12:41:29;101118.59;;;11.06;100.00
38038;BME280;23843;51.320;12.340;2023-04-08T12:43:54;101118.59;;;11.06;100.00